»·PEaware :: UAL1399 KSFO-KRNO

UAL1399 :: KSFO-KRNO

FLIGHT INFORMATION

Flight Status: Arrived
Operator:
United Airlines
More flights by this operator :: More flights under this callsign
Pilot: David C. (16084)
Aircraft: EMBRAER EMB-170/175
(E170)
More flights by this aircraft type
Origin: KSFO San Francisco Intl
United States
Destination: KRNO Reno/Tahoe Intl
United States
More flights between these airports :: More routes between these airports
Route: TRUKN2 ORRCA HOBOA SIER3
File this flight plan on PilotEdge
Remarks:
Altitude:
(Current/Filed)
25,000ft
Speed:
(Current/Filed)
371kts
Departed: 08-Jan-18 01:10 PM
Arrived: 08-Jan-18 01:46 PM
Distance/Time
Traveled:
166nm/0:36
Distance/Time
To Go:
Arrived

Flight Plot

Page will automatically refresh every two minutes.


Map Options




Map Legend


Flown Route
Filed Route
Departure Airport
Arrival Airport
Navaid (VOR, NDB)
Fix

Horizontal Profiles

Position Reports

Time Latitude Longitude Heading Altitude Ground
Speed
08-Jan-18 12:31 37.619200 -122.383563 291 20ft 0kts
08-Jan-18 12:32 37.619200 -122.383563 291 20ft 0kts
08-Jan-18 12:33 37.619200 -122.383563 291 20ft 0kts
08-Jan-18 12:34 37.619200 -122.383563 291 20ft 0kts
08-Jan-18 12:35 37.619200 -122.383563 291 20ft 0kts
08-Jan-18 12:36 37.619200 -122.383563 291 20ft 0kts
08-Jan-18 12:37 37.619200 -122.383563 291 20ft 0kts
08-Jan-18 12:38 37.619200 -122.383563 291 20ft 0kts
08-Jan-18 12:39 37.619200 -122.383563 291 20ft 0kts
08-Jan-18 12:40 37.619200 -122.383563 291 20ft 0kts
08-Jan-18 12:41 37.619200 -122.383563 291 20ft 0kts
08-Jan-18 12:42 37.619200 -122.383563 291 20ft 0kts
08-Jan-18 12:43 37.619200 -122.383563 291 20ft 0kts
08-Jan-18 12:44 37.619200 -122.383563 291 20ft 0kts
08-Jan-18 12:45 37.619200 -122.383563 291 20ft 0kts
08-Jan-18 12:46 37.619200 -122.383563 291 20ft 0kts
08-Jan-18 12:47 37.619200 -122.383563 291 20ft 0kts
08-Jan-18 12:48 37.619200 -122.383563 291 20ft 0kts
08-Jan-18 12:49 37.619200 -122.383563 291 20ft 0kts
08-Jan-18 12:50 37.619200 -122.383563 291 20ft 0kts
08-Jan-18 12:51 37.619200 -122.383563 291 20ft 0kts
08-Jan-18 12:52 37.619200 -122.383563 291 20ft 0kts
08-Jan-18 12:53 37.619200 -122.383563 291 20ft 0kts
08-Jan-18 12:54 37.619200 -122.383563 291 20ft 0kts
08-Jan-18 12:55 37.619200 -122.383563 291 20ft 0kts
08-Jan-18 12:56 37.619200 -122.383563 291 20ft 0kts
08-Jan-18 12:57 37.619200 -122.383563 291 20ft 0kts
08-Jan-18 12:58 37.619200 -122.383563 291 20ft 0kts
08-Jan-18 12:59 37.619200 -122.383563 291 20ft 0kts
08-Jan-18 13:00 37.619200 -122.383563 291 20ft 0kts
08-Jan-18 13:01 37.619200 -122.383563 291 20ft 0kts
08-Jan-18 13:02 37.619200 -122.383563 291 20ft 0kts
08-Jan-18 13:03 37.619044 -122.383077 308 20ft 1kts
08-Jan-18 13:04 37.618793 -122.383014 30 20ft 0kts
08-Jan-18 13:05 37.618793 -122.383014 30 20ft 0kts
08-Jan-18 13:06 37.618793 -122.383014 30 20ft 0kts
08-Jan-18 13:07 37.618793 -122.383014 30 20ft 0kts
08-Jan-18 13:08 37.618793 -122.383014 30 20ft 0kts
08-Jan-18 13:09 37.618793 -122.383014 30 20ft 0kts
08-Jan-18 13:10 37.619074 -122.380617 124 20ft 19kts
08-Jan-18 13:11 37.612921 -122.382088 207 20ft 28kts
08-Jan-18 13:12 37.608503 -122.383862 112 20ft 0kts
08-Jan-18 13:13 37.608503 -122.383862 112 20ft 0kts
08-Jan-18 13:14 37.608503 -122.383862 112 20ft 0kts
08-Jan-18 13:15 37.608385 -122.382745 50 20ft 10kts
08-Jan-18 13:16 37.612546 -122.379874 28 21ft 101kts
08-Jan-18 13:17 37.655365 -122.356245 22 3025ft 204kts
08-Jan-18 13:18 37.688367 -122.294603 81 5546ft 235kts
08-Jan-18 13:19 37.718162 -122.218901 48 8278ft 260kts
08-Jan-18 13:20 37.775884 -122.162369 37 11547ft 284kts
08-Jan-18 13:21 37.840674 -122.103468 36 15011ft 304kts
08-Jan-18 13:22 37.910522 -122.040114 36 18143ft 323kts
08-Jan-18 13:23 37.983950 -121.973370 37 20929ft 340kts
08-Jan-18 13:24 38.061311 -121.902874 37 23427ft 356kts
08-Jan-18 13:25 38.141227 -121.829821 37 24907ft 396kts
08-Jan-18 13:26 38.237502 -121.741599 37 24912ft 476kts
08-Jan-18 13:27 38.344683 -121.645722 38 24922ft 477kts
08-Jan-18 13:28 38.447569 -121.544849 44 24940ft 475kts
08-Jan-18 13:29 38.539793 -121.429218 47 24946ft 475kts
08-Jan-18 13:30 38.630235 -121.313559 47 24945ft 474kts
08-Jan-18 13:31 38.721600 -121.196229 47 24946ft 474kts
08-Jan-18 13:32 38.812654 -121.078905 48 24935ft 478kts
08-Jan-18 13:33 38.905118 -120.959253 48 24932ft 482kts
08-Jan-18 13:34 38.998619 -120.837736 47 24949ft 485kts
08-Jan-18 13:35 39.091824 -120.716214 47 24306ft 484kts
08-Jan-18 13:36 39.180382 -120.600272 47 22455ft 465kts
08-Jan-18 13:37 39.265726 -120.488121 47 20617ft 451kts
08-Jan-18 13:38 39.348339 -120.379161 47 18522ft 427kts
08-Jan-18 13:39 39.423438 -120.286826 43 16096ft 386kts
08-Jan-18 13:40 39.500949 -120.196635 43 16035ft 387kts
08-Jan-18 13:41 39.579294 -120.105320 43 16036ft 387kts
08-Jan-18 13:42 39.647012 -120.026738 43 14729ft 304kts
08-Jan-18 13:43 39.704213 -119.960822 43 12907ft 263kts
08-Jan-18 13:44 39.755760 -119.899550 51 10568ft 242kts
08-Jan-18 13:45 39.783439 -119.830766 81 8674ft 200kts
08-Jan-18 13:46 39.759990 -119.780832 162 7194ft 155kts
08-Jan-18 13:47 39.716417 -119.767543 176 7075ft 184kts
08-Jan-18 13:48 39.664978 -119.758441 177 7128ft 204kts
08-Jan-18 13:49 39.609979 -119.756877 188 6613ft 193kts
08-Jan-18 13:50 39.564881 -119.767737 185 5525ft 146kts
08-Jan-18 13:51 39.523745 -119.769041 180 4828ft 151kts
08-Jan-18 13:52 39.494198 -119.769319 185 4422ft 31kts
08-Jan-18 13:53 39.492833 -119.770234 246 4422ft 0kts
08-Jan-18 13:54 39.492833 -119.770234 246 4422ft 0kts
08-Jan-18 13:55 39.492621 -119.770923 265 4422ft 14kts
08-Jan-18 13:56 39.498987 -119.771536 0 4422ft 28kts
08-Jan-18 13:57 39.505846 -119.772741 271 4422ft 21kts

Navigation Log

Ident Type
1. KSFO Airport
2. HOBOA Fix
3. SAC Navaid
4. HOBOA Fix
5. KRNO Airport